Time;durP1;ratioP1;P1;durP2;ratioP2;P2;SDS_P1;SDS_P2;PMS_P1;PMS_P2;Temp;Humidity;BMP_temperature;BMP_pressure;BME280_temperature;BME280_humidity;BME280_pressure;Samples;Min_cycle;Max_cycle;Signal;HPM_P1;HPM_P2
2023/03/08 00:01:01;;;;;;;5.55;3.35;;;;;;;;;;5028021;27;98300;-78
2023/03/08 00:03:27;;;;;;;2.92;2.72;;;;;;;;;;5024458;28;99397;-76
2023/03/08 00:05:53;;;;;;;7.03;3.13;;;;;;;;;;5007108;28;98328;-78
2023/03/08 00:08:20;;;;;;;3.10;2.88;;;;;;;;;;5008736;28;98691;-76
2023/03/08 00:10:48;;;;;;;3.03;2.67;;;;;;;;;;5007818;28;99941;-76
2023/03/08 00:13:14;;;;;;;2.42;2.30;;;;;;;;;;5029417;27;98463;-76
2023/03/08 00:15:41;;;;;;;4.15;2.67;;;;;;;;;;5031254;28;98792;-76
2023/03/08 00:18:07;;;;;;;4.00;2.88;;;;;;;;;;5031080;27;98853;-77
2023/03/08 00:20:33;;;;;;;5.05;3.03;;;;;;;;;;5018671;28;98331;-76
2023/03/08 00:23:00;;;;;;;3.58;2.70;;;;;;;;;;5011030;28;98323;-76
2023/03/08 00:25:26;;;;;;;3.08;2.83;;;;;;;;;;5014194;28;100229;-76
2023/03/08 00:27:53;;;;;;;3.50;2.65;;;;;;;;;;5010217;28;98467;-76
2023/03/08 00:30:20;;;;;;;4.18;2.80;;;;;;;;;;5025925;28;98748;-76
2023/03/08 00:32:47;;;;;;;3.65;2.80;;;;;;;;;;5031876;28;98155;-77
2023/03/08 00:35:14;;;;;;;4.40;2.67;;;;;;;;;;5029841;27;100538;-76
2023/03/08 00:37:40;;;;;;;9.55;3.17;;;;;;;;;;5030566;27;99219;-76
2023/03/08 00:40:07;;;;;;;6.30;3.25;;;;;;;;;;5029506;28;98910;-76
2023/03/08 00:42:34;;;;;;;2.85;2.65;;;;;;;;;;5031729;28;98406;-76
2023/03/08 00:45:00;;;;;;;2.63;2.53;;;;;;;;;;5030613;28;99922;-76
2023/03/08 00:47:26;;;;;;;6.85;3.22;;;;;;;;;;5034022;28;98380;-76
2023/03/08 00:49:53;;;;;;;4.60;2.58;;;;;;;;;;5031049;28;98842;-77
2023/03/08 00:52:19;;;;;;;2.80;2.60;;;;;;;;;;5031457;27;98300;-76
2023/03/08 00:54:46;;;;;;;3.50;3.03;;;;;;;;;;5028171;28;101112;-76
2023/03/08 00:57:12;;;;;;;6.30;3.00;;;;;;;;;;5029596;28;100397;-76
2023/03/08 00:59:38;;;;;;;3.60;3.30;;;;;;;;;;5031627;28;98205;-76
2023/03/08 01:02:05;;;;;;;2.83;2.50;;;;;;;;;;5030103;28;98564;-76
2023/03/08 01:04:32;;;;;;;3.58;3.05;;;;;;;;;;5029017;28;98766;-76
2023/03/08 01:07:00;;;;;;;3.08;2.88;;;;;;;;;;5034487;28;98333;-76
2023/03/08 01:09:26;;;;;;;5.78;3.25;;;;;;;;;;5028597;28;101128;-77
2023/03/08 01:11:53;;;;;;;4.40;2.80;;;;;;;;;;5021246;28;98756;-75
2023/03/08 01:14:19;;;;;;;7.05;3.60;;;;;;;;;;5011015;28;99325;-76
2023/03/08 01:16:46;;;;;;;3.80;3.20;;;;;;;;;;5009462;28;101681;-77
2023/03/08 01:19:12;;;;;;;5.07;3.53;;;;;;;;;;5030322;27;98377;-76
2023/03/08 01:21:40;;;;;;;3.33;2.72;;;;;;;;;;5029493;28;98683;-77
2023/03/08 01:24:07;;;;;;;3.03;2.83;;;;;;;;;;5028603;27;100830;-77
2023/03/08 01:26:33;;;;;;;3.50;3.20;;;;;;;;;;5030316;28;98261;-77
2023/03/08 01:29:00;;;;;;;5.90;3.22;;;;;;;;;;5025956;27;98654;-77
2023/03/08 01:31:27;;;;;;;8.32;3.20;;;;;;;;;;5028248;28;98245;-76
2023/03/08 01:33:55;;;;;;;4.28;3.88;;;;;;;;;;5029459;28;98539;-76
2023/03/08 01:36:23;;;;;;;5.63;3.53;;;;;;;;;;5028525;27;100166;-76
2023/03/08 01:38:50;;;;;;;7.72;3.25;;;;;;;;;;5030492;27;98678;-76
2023/03/08 01:41:18;;;;;;;4.00;3.53;;;;;;;;;;5030765;27;99138;-76
2023/03/08 01:43:45;;;;;;;9.82;3.28;;;;;;;;;;5028453;28;98480;-76
2023/03/08 01:46:22;;;;;;;4.38;4.07;;;;;;;;;;5015413;28;98191;-76
2023/03/08 01:48:54;;;;;;;7.53;3.80;;;;;;;;;;5043635;27;98686;-76
2023/03/08 01:51:25;;;;;;;4.53;4.13;;;;;;;;;;5019405;28;100837;-77
2023/03/08 01:53:52;;;;;;;4.65;4.25;;;;;;;;;;5021674;28;98303;-76
2023/03/08 01:56:19;;;;;;;6.85;5.85;;;;;;;;;;5052462;27;101347;-76
2023/03/08 01:58:47;;;;;;;6.22;5.72;;;;;;;;;;5041380;27;98325;-77
2023/03/08 02:01:16;;;;;;;5.55;5.05;;;;;;;;;;5042524;27;99836;-77
2023/03/08 02:03:44;;;;;;;6.10;5.50;;;;;;;;;;5008371;28;101973;-77
2023/03/08 02:06:12;;;;;;;14.18;6.07;;;;;;;;;;5007516;28;98361;-77
2023/03/08 02:08:38;;;;;;;6.35;5.80;;;;;;;;;;5008523;28;101125;-77
2023/03/08 02:11:06;;;;;;;7.28;6.50;;;;;;;;;;5010795;28;101752;-76
2023/03/08 02:13:32;;;;;;;8.25;6.43;;;;;;;;;;5031294;28;98748;-76
2023/03/08 02:16:00;;;;;;;8.18;6.60;;;;;;;;;;5028457;28;101168;-77
2023/03/08 02:18:27;;;;;;;7.25;6.68;;;;;;;;;;5026783;27;98307;-77
2023/03/08 02:20:53;;;;;;;7.35;6.40;;;;;;;;;;5042675;27;101455;-76
2023/03/08 02:23:21;;;;;;;8.00;6.80;;;;;;;;;;5012083;28;98737;-76
2023/03/08 02:25:49;;;;;;;13.50;8.00;;;;;;;;;;5007790;28;98470;-76
2023/03/08 02:28:16;;;;;;;8.43;7.57;;;;;;;;;;5028357;27;98383;-76
2023/03/08 02:30:43;;;;;;;8.98;7.70;;;;;;;;;;5029748;27;99877;-76
2023/03/08 02:33:09;;;;;;;8.77;8.05;;;;;;;;;;5027575;28;98320;-76
2023/03/08 02:35:37;;;;;;;10.73;7.28;;;;;;;;;;5030319;27;99563;-76
2023/03/08 02:38:04;;;;;;;9.35;8.38;;;;;;;;;;5008528;28;98280;-76
2023/03/08 02:40:30;;;;;;;9.38;8.38;;;;;;;;;;5009079;28;98671;-76
2023/03/08 02:42:57;;;;;;;11.20;8.65;;;;;;;;;;5008749;28;98923;-76
2023/03/08 02:45:23;;;;;;;11.57;9.02;;;;;;;;;;5010172;28;98677;-76
2023/03/08 02:47:49;;;;;;;11.20;8.75;;;;;;;;;;5008518;28;98503;-77
2023/03/08 02:50:16;;;;;;;11.93;8.38;;;;;;;;;;5009807;28;99001;-77
2023/03/08 02:52:43;;;;;;;11.93;8.30;;;;;;;;;;5008886;28;98341;-76
2023/03/08 02:55:09;;;;;;;13.82;9.93;;;;;;;;;;5025131;27;99486;-76
2023/03/08 02:57:36;;;;;;;10.63;8.60;;;;;;;;;;5037447;27;101759;-76
2023/03/08 03:00:04;;;;;;;9.60;8.23;;;;;;;;;;5028357;28;100974;-76
2023/03/08 03:02:32;;;;;;;9.82;8.90;;;;;;;;;;5027261;28;100163;-76
2023/03/08 03:04:58;;;;;;;10.23;9.23;;;;;;;;;;5029474;28;98246;-75
2023/03/08 03:07:27;;;;;;;14.45;9.48;;;;;;;;;;5026710;28;100921;-76
2023/03/08 03:09:53;;;;;;;9.68;8.68;;;;;;;;;;5020847;28;99122;-76
2023/03/08 03:12:20;;;;;;;10.55;9.63;;;;;;;;;;5020364;28;98202;-76
2023/03/08 03:14:46;;;;;;;11.27;10.15;;;;;;;;;;5027023;28;101258;-76
2023/03/08 03:17:14;;;;;;;11.50;10.40;;;;;;;;;;5031256;28;101534;-76
2023/03/08 03:19:41;;;;;;;12.43;11.30;;;;;;;;;;5029557;28;98989;-76
2023/03/08 03:22:07;;;;;;;10.98;9.80;;;;;;;;;;5028172;28;98700;-76
2023/03/08 03:24:34;;;;;;;22.40;10.13;;;;;;;;;;5029605;28;98739;-76
2023/03/08 03:27:04;;;;;;;12.35;10.43;;;;;;;;;;5025516;27;100501;-77
2023/03/08 03:29:33;;;;;;;11.68;10.48;;;;;;;;;;5020552;28;99238;-76
2023/03/08 03:32:08;;;;;;;14.25;11.70;;;;;;;;;;5025821;28;98986;-75
2023/03/08 03:34:34;;;;;;;13.15;11.00;;;;;;;;;;5029397;27;98780;-76
2023/03/08 03:37:01;;;;;;;13.00;11.27;;;;;;;;;;5026823;27;100864;-76
2023/03/08 03:39:33;;;;;;;12.88;11.63;;;;;;;;;;5030956;28;98400;-77
2023/03/08 03:42:02;;;;;;;13.93;11.27;;;;;;;;;;5027136;28;100230;-76
2023/03/08 03:44:29;;;;;;;13.95;11.48;;;;;;;;;;5026430;28;98379;-76
2023/03/08 03:46:56;;;;;;;12.60;11.45;;;;;;;;;;5027163;28;99371;-75
2023/03/08 03:49:25;;;;;;;18.02;12.52;;;;;;;;;;5030753;28;98819;-76
2023/03/08 03:51:52;;;;;;;14.60;11.65;;;;;;;;;;5029601;28;98327;-75
2023/03/08 03:54:31;;;;;;;16.80;11.98;;;;;;;;;;5032262;27;98285;-75
2023/03/08 03:56:59;;;;;;;16.70;13.18;;;;;;;;;;5028377;28;99088;-75
2023/03/08 03:59:29;;;;;;;18.55;14.00;;;;;;;;;;5031254;27;98302;-75
2023/03/08 04:01:56;;;;;;;20.33;13.93;;;;;;;;;;5032481;28;99182;-75
2023/03/08 04:04:34;;;;;;;40.63;15.38;;;;;;;;;;5030428;28;98230;-75
2023/03/08 04:07:02;;;;;;;55.92;18.15;;;;;;;;;;5029337;28;101799;-75
2023/03/08 04:09:34;;;;;;;51.97;20.13;;;;;;;;;;5030616;28;101064;-75
2023/03/08 04:12:12;;;;;;;99.18;22.10;;;;;;;;;;5018245;28;98284;-76
2023/03/08 04:14:39;;;;;;;69.82;21.52;;;;;;;;;;5010488;28;101462;-76
2023/03/08 04:17:07;;;;;;;92.40;22.40;;;;;;;;;;5010132;28;99920;-76
2023/03/08 04:19:39;;;;;;;;;;;;;;;;;;5011085;28;98345;-75
2023/03/08 04:22:06;;;;;;;252.57;24.02;;;;;;;;;;5009354;28;100605;-76
2023/03/08 04:24:41;;;;;;;196.85;25.45;;;;;;;;;;5016622;27;101346;-76
2023/03/08 04:27:12;;;;;;;184.77;28.38;;;;;;;;;;5030620;27;100307;-75
2023/03/08 04:29:39;;;;;;;172.75;25.50;;;;;;;;;;5030050;28;100866;-76
2023/03/08 04:32:06;;;;;;;168.43;26.63;;;;;;;;;;5032090;27;98288;-77
2023/03/08 04:34:41;;;;;;;406.73;34.05;;;;;;;;;;5031264;27;99556;-76
2023/03/08 04:37:19;;;;;;;254.52;29.08;;;;;;;;;;5030658;28;101671;-76
2023/03/08 04:39:51;;;;;;;246.07;28.45;;;;;;;;;;5036691;28;98543;-77
2023/03/08 04:42:17;;;;;;;244.02;29.40;;;;;;;;;;5039164;27;99609;-75
2023/03/08 04:44:45;;;;;;;359.58;34.00;;;;;;;;;;5030144;28;101533;-75
2023/03/08 04:47:16;;;;;;;419.95;37.10;;;;;;;;;;5032085;28;98445;-77
2023/03/08 04:49:44;;;;;;;274.00;37.10;;;;;;;;;;5029598;28;98819;-75
2023/03/08 04:52:11;;;;;;;297.70;38.15;;;;;;;;;;5021880;28;98344;-77
2023/03/08 04:54:39;;;;;;;308.00;37.53;;;;;;;;;;5008998;28;98203;-77
2023/03/08 04:57:19;;;;;;;222.75;35.25;;;;;;;;;;5009864;28;100106;-77
2023/03/08 04:59:49;;;;;;;307.65;38.50;;;;;;;;;;5008362;28;98334;-77
2023/03/08 05:02:15;;;;;;;250.93;36.88;;;;;;;;;;5010118;28;98293;-77
2023/03/08 05:04:43;;;;;;;396.73;41.47;;;;;;;;;;5009820;28;101543;-76
2023/03/08 05:07:09;;;;;;;279.40;37.17;;;;;;;;;;5009330;28;98369;-75
2023/03/08 05:09:36;;;;;;;286.95;39.88;;;;;;;;;;5012464;28;99552;-75
2023/03/08 05:12:04;;;;;;;252.60;41.95;;;;;;;;;;5018945;28;98313;-75
2023/03/08 05:14:44;;;;;;;236.32;40.63;;;;;;;;;;5029442;28;98693;-76
2023/03/08 05:17:11;;;;;;;257.80;40.92;;;;;;;;;;5026904;27;101031;-75
2023/03/08 05:19:37;;;;;;;181.90;40.08;;;;;;;;;;5015095;28;99507;-76
2023/03/08 05:22:05;;;;;;;250.88;40.47;;;;;;;;;;5018171;28;101341;-77
2023/03/08 05:24:38;;;;;;;203.88;32.47;;;;;;;;;;5017158;28;102049;-77
2023/03/08 05:27:06;;;;;;;257.52;38.60;;;;;;;;;;5020244;27;98097;-77
2023/03/08 05:29:36;;;;;;;284.27;41.08;;;;;;;;;;5027467;27;102485;-76
2023/03/08 05:32:03;;;;;;;281.80;43.17;;;;;;;;;;5025080;28;98267;-76
2023/03/08 05:34:32;;;;;;;277.60;38.50;;;;;;;;;;5020013;28;100151;-76
2023/03/08 05:37:00;;;;;;;179.13;31.95;;;;;;;;;;5014884;28;100056;-76
2023/03/08 05:39:29;;;;;;;268.95;40.55;;;;;;;;;;5016129;28;99011;-76
2023/03/08 05:42:10;;;;;;;264.92;36.67;;;;;;;;;;5021371;28;101241;-75
2023/03/08 05:44:39;;;;;;;336.77;42.22;;;;;;;;;;5015503;28;101037;-76
2023/03/08 05:47:08;;;;;;;308.25;46.80;;;;;;;;;;5016166;28;98284;-76
2023/03/08 05:49:35;;;;;;;399.52;45.53;;;;;;;;;;5020181;28;102190;-76
2023/03/08 05:52:03;;;;;;;350.02;45.53;;;;;;;;;;5024130;28;98938;-76
2023/03/08 05:54:29;;;;;;;345.80;44.38;;;;;;;;;;5020197;28;101295;-76
2023/03/08 05:57:01;;;;;;;198.55;36.38;;;;;;;;;;5021160;28;101741;-76
2023/03/08 05:59:28;;;;;;;198.57;36.33;;;;;;;;;;5021396;27;98771;-76
2023/03/08 06:01:59;;;;;;;200.18;39.17;;;;;;;;;;5014704;27;100285;-76
2023/03/08 06:04:36;;;;;;;301.30;43.30;;;;;;;;;;5021881;28;100735;-76
2023/03/08 06:07:02;;;;;;;227.93;40.97;;;;;;;;;;5020586;28;99574;-76
2023/03/08 06:09:34;;;;;;;372.35;49.95;;;;;;;;;;5023907;28;100388;-76
2023/03/08 06:12:02;;;;;;;268.67;41.53;;;;;;;;;;5015074;28;99262;-76
2023/03/08 06:14:28;;;;;;;306.30;44.25;;;;;;;;;;5018337;28;98486;-76
2023/03/08 06:16:56;;;;;;;208.27;33.97;;;;;;;;;;5019965;28;100980;-75
2023/03/08 06:19:25;;;;;;;204.05;34.92;;;;;;;;;;5026087;28;98672;-75
2023/03/08 06:21:53;;;;;;;183.75;36.63;;;;;;;;;;5015393;27;100477;-76
2023/03/08 06:24:20;;;;;;;257.20;43.38;;;;;;;;;;5024552;28;99886;-75
2023/03/08 06:26:47;;;;;;;219.20;39.65;;;;;;;;;;5019436;28;98867;-76
2023/03/08 06:29:16;;;;;;;147.48;35.08;;;;;;;;;;5026922;27;98327;-76
2023/03/08 06:31:43;;;;;;;310.27;51.08;;;;;;;;;;5027003;27;102045;-76
2023/03/08 06:34:14;;;;;;;371.40;50.67;;;;;;;;;;5013968;28;98312;-76
2023/03/08 06:36:41;;;;;;;232.18;44.97;;;;;;;;;;5022251;27;100661;-76
2023/03/08 06:39:08;;;;;;;203.15;42.00;;;;;;;;;;5042951;27;98319;-75
2023/03/08 06:41:35;;;;;;;168.48;39.85;;;;;;;;;;5016359;28;99253;-76
2023/03/08 06:44:03;;;;;;;207.48;38.85;;;;;;;;;;5026393;28;98925;-75
2023/03/08 06:46:31;;;;;;;130.10;36.72;;;;;;;;;;5019740;28;98244;-75
2023/03/08 06:48:58;;;;;;;124.72;30.27;;;;;;;;;;5021365;28;98476;-76
2023/03/08 06:51:25;;;;;;;165.75;42.78;;;;;;;;;;5016621;28;99875;-75
2023/03/08 06:53:52;;;;;;;137.70;37.55;;;;;;;;;;5019773;28;99533;-76
2023/03/08 06:56:22;;;;;;;112.05;40.72;;;;;;;;;;5019703;28;98442;-75
2023/03/08 06:58:48;;;;;;;125.05;39.58;;;;;;;;;;5022138;27;100209;-76
2023/03/08 07:01:15;;;;;;;99.53;39.20;;;;;;;;;;5017468;28;99799;-76
2023/03/08 07:03:43;;;;;;;80.93;35.70;;;;;;;;;;5018751;27;98954;-76
2023/03/08 07:06:10;;;;;;;92.72;33.85;;;;;;;;;;5021773;28;98297;-76
2023/03/08 07:08:38;;;;;;;100.78;38.40;;;;;;;;;;5024148;28;99504;-76
2023/03/08 07:11:05;;;;;;;83.97;38.08;;;;;;;;;;5021527;27;100155;-75
2023/03/08 07:13:31;;;;;;;62.58;35.25;;;;;;;;;;5015140;28;98257;-75
2023/03/08 07:15:58;;;;;;;78.07;38.78;;;;;;;;;;5013571;27;99391;-75
2023/03/08 07:18:25;;;;;;;74.25;37.33;;;;;;;;;;5019018;27;100285;-76
2023/03/08 07:20:52;;;;;;;84.32;37.63;;;;;;;;;;5030595;28;99619;-76
2023/03/08 07:23:21;;;;;;;72.88;37.28;;;;;;;;;;5018457;28;98133;-75
2023/03/08 07:25:48;;;;;;;76.20;36.15;;;;;;;;;;5010796;28;98132;-76
2023/03/08 07:28:14;;;;;;;70.85;35.38;;;;;;;;;;5018119;27;98589;-75
2023/03/08 07:30:45;;;;;;;80.07;36.55;;;;;;;;;;5016789;28;99828;-76
2023/03/08 07:33:11;;;;;;;62.15;34.40;;;;;;;;;;5018814;28;98486;-76
2023/03/08 07:35:38;;;;;;;66.82;35.63;;;;;;;;;;5020262;27;98603;-76
2023/03/08 07:38:05;;;;;;;79.00;38.30;;;;;;;;;;5014252;27;99951;-76
2023/03/08 07:40:32;;;;;;;59.67;34.33;;;;;;;;;;5014504;28;99772;-76
2023/03/08 07:42:59;;;;;;;59.78;31.20;;;;;;;;;;5017326;27;100058;-75
2023/03/08 07:45:44;;;;;;;66.82;35.60;;;;;;;;;;5021264;27;98246;-75
2023/03/08 07:48:11;;;;;;;74.60;34.35;;;;;;;;;;5015160;28;99725;-75
2023/03/08 07:50:37;;;;;;;67.90;34.90;;;;;;;;;;5017886;27;99346;-76
2023/03/08 07:53:06;;;;;;;50.40;28.63;;;;;;;;;;5026187;28;98164;-77
2023/03/08 07:55:33;;;;;;;65.03;34.75;;;;;;;;;;5020817;28;99399;-78
2023/03/08 07:58:00;;;;;;;70.30;35.88;;;;;;;;;;5025088;28;99912;-78
2023/03/08 08:00:26;;;;;;;60.28;31.48;;;;;;;;;;5023740;28;99028;-77
2023/03/08 08:02:53;;;;;;;67.28;33.45;;;;;;;;;;5028238;27;98607;-77
2023/03/08 08:05:20;;;;;;;79.07;40.38;;;;;;;;;;5023041;28;98830;-77
2023/03/08 08:07:47;;;;;;;64.85;37.45;;;;;;;;;;5022526;27;100005;-77
2023/03/08 08:10:14;;;;;;;57.38;31.90;;;;;;;;;;5026427;27;99131;-77
2023/03/08 08:12:40;;;;;;;66.60;35.90;;;;;;;;;;5022114;27;100130;-76
2023/03/08 08:15:07;;;;;;;65.40;37.33;;;;;;;;;;5020424;28;98605;-77
2023/03/08 08:17:33;;;;;;;65.70;37.10;;;;;;;;;;5022713;27;99166;-78
2023/03/08 08:19:59;;;;;;;64.95;34.13;;;;;;;;;;5026784;28;98812;-77
2023/03/08 08:22:26;;;;;;;66.53;34.10;;;;;;;;;;5023865;28;99845;-75
2023/03/08 08:24:52;;;;;;;64.10;34.90;;;;;;;;;;5018775;28;100148;-75
2023/03/08 08:27:19;;;;;;;58.08;32.00;;;;;;;;;;5026626;27;98760;-77
2023/03/08 08:29:48;;;;;;;51.25;31.00;;;;;;;;;;5019981;28;100516;-76
2023/03/08 08:32:14;;;;;;;64.88;34.25;;;;;;;;;;5014062;27;98347;-77
2023/03/08 08:34:41;;;;;;;52.08;30.70;;;;;;;;;;5020875;28;99689;-76
2023/03/08 08:37:07;;;;;;;57.50;31.45;;;;;;;;;;5025664;28;100305;-76
2023/03/08 08:39:33;;;;;;;47.70;27.90;;;;;;;;;;5029057;28;98450;-76
2023/03/08 08:42:00;;;;;;;52.58;27.55;;;;;;;;;;5023578;28;99519;-75
2023/03/08 08:44:26;;;;;;;60.35;31.15;;;;;;;;;;5033986;27;99851;-75
2023/03/08 08:46:52;;;;;;;46.95;25.13;;;;;;;;;;5031915;28;98395;-75
2023/03/08 08:49:19;;;;;;;57.67;32.30;;;;;;;;;;5020898;27;99111;-75
2023/03/08 08:51:45;;;;;;;51.45;26.35;;;;;;;;;;5028162;27;98271;-75
2023/03/08 08:54:11;;;;;;;63.50;31.60;;;;;;;;;;5024358;28;98670;-75
2023/03/08 08:56:41;;;;;;;64.18;33.13;;;;;;;;;;5016972;28;100234;-75
2023/03/08 08:59:09;;;;;;;60.45;31.13;;;;;;;;;;5026193;27;99249;-75
2023/03/08 09:01:38;;;;;;;62.97;34.60;;;;;;;;;;5027090;27;99524;-74
2023/03/08 09:04:05;;;;;;;51.83;27.73;;;;;;;;;;5024886;28;100086;-74
2023/03/08 09:06:31;;;;;;;64.60;33.20;;;;;;;;;;5022374;28;98274;-74
2023/03/08 09:08:58;;;;;;;38.33;23.15;;;;;;;;;;5026799;28;99525;-77
2023/03/08 09:11:25;;;;;;;37.95;20.30;;;;;;;;;;5026164;27;98635;-74
2023/03/08 09:13:52;;;;;;;55.08;27.02;;;;;;;;;;5027829;28;99454;-74
2023/03/08 09:16:19;;;;;;;55.95;27.42;;;;;;;;;;5023398;28;99919;-74
2023/03/08 09:18:46;;;;;;;62.30;32.42;;;;;;;;;;5016988;28;99041;-74
2023/03/08 09:21:14;;;;;;;53.70;29.02;;;;;;;;;;5027783;27;99625;-75
2023/03/08 09:23:40;;;;;;;65.68;33.00;;;;;;;;;;5017841;28;99426;-74
2023/03/08 09:26:07;;;;;;;58.05;33.63;;;;;;;;;;5017758;28;99382;-75
2023/03/08 09:28:33;;;;;;;64.28;32.63;;;;;;;;;;5027476;28;99462;-75
2023/03/08 09:31:04;;;;;;;57.75;28.67;;;;;;;;;;5031526;27;98659;-75
2023/03/08 09:33:30;;;;;;;56.10;30.33;;;;;;;;;;5026509;27;100983;-75
2023/03/08 09:35:57;;;;;;;54.53;29.00;;;;;;;;;;5025641;28;99984;-75
2023/03/08 09:38:24;;;;;;;57.55;27.27;;;;;;;;;;5022025;27;98260;-75
2023/03/08 09:41:08;;;;;;;41.95;22.88;;;;;;;;;;5024762;27;99515;-75
2023/03/08 09:43:41;;;;;;;51.60;27.23;;;;;;;;;;5021546;28;100033;-75
2023/03/08 09:46:07;;;;;;;;;;;;;;;;;;5028438;27;98236;-75
2023/03/08 09:48:34;;;;;;;33.65;19.08;;;;;;;;;;5028172;28;129042;-74
2023/03/08 09:51:03;;;;;;;60.53;30.67;;;;;;;;;;5030027;28;99523;-74
2023/03/08 09:53:35;;;;;;;46.40;27.50;;;;;;;;;;5029171;27;99364;-75
2023/03/08 09:56:05;;;;;;;49.70;28.83;;;;;;;;;;5018125;27;99999;-75
2023/03/08 09:59:04;;;;;;;50.63;26.00;;;;;;;;;;5024964;27;100281;-75
2023/03/08 10:01:35;;;;;;;33.95;17.33;;;;;;;;;;4981106;28;99701;-76
2023/03/08 10:04:08;;;;;;;39.90;22.85;;;;;;;;;;5019191;28;98974;-75
2023/03/08 10:06:39;;;;;;;38.40;19.10;;;;;;;;;;5027806;27;98204;-76
2023/03/08 10:09:21;;;;;;;50.45;28.23;;;;;;;;;;5027772;27;98488;-75
2023/03/08 10:11:53;;;;;;;52.08;28.90;;;;;;;;;;5020636;27;99152;-77
2023/03/08 10:14:25;;;;;;;47.30;24.63;;;;;;;;;;5029339;27;98199;-74
2023/03/08 10:16:56;;;;;;;47.83;26.35;;;;;;;;;;5019199;27;100188;-75
2023/03/08 10:19:38;;;;;;;46.72;27.75;;;;;;;;;;5028030;27;98624;-75
2023/03/08 10:22:12;;;;;;;45.08;26.75;;;;;;;;;;5027195;28;99577;-75
2023/03/08 10:24:46;;;;;;;37.83;22.85;;;;;;;;;;5015738;27;100190;-74
2023/03/08 10:27:24;;;;;;;35.35;21.85;;;;;;;;;;5026680;27;98566;-74
2023/03/08 10:29:51;;;;;;;38.47;22.98;;;;;;;;;;5021691;28;99627;-77
2023/03/08 10:32:18;;;;;;;29.70;19.02;;;;;;;;;;5025238;27;100306;-79
2023/03/08 10:34:45;;;;;;;29.02;17.83;;;;;;;;;;5025913;27;98209;-76
2023/03/08 10:37:13;;;;;;;29.83;17.77;;;;;;;;;;5024516;27;99277;-75
2023/03/08 10:39:51;;;;;;;29.05;18.05;;;;;;;;;;5019366;28;98994;-75
2023/03/08 10:42:20;;;;;;;26.13;15.90;;;;;;;;;;5023918;28;98586;-75
2023/03/08 10:44:52;;;;;;;33.22;22.20;;;;;;;;;;5025532;28;100203;-75
2023/03/08 10:47:23;;;;;;;29.97;18.37;;;;;;;;;;5018840;28;98137;-75
2023/03/08 10:50:08;;;;;;;36.17;23.02;;;;;;;;;;5016888;28;100276;-75
2023/03/08 10:52:34;;;;;;;37.00;22.15;;;;;;;;;;5026583;28;98992;-75
2023/03/08 10:55:02;;;;;;;32.25;21.27;;;;;;;;;;5027821;27;98259;-75
2023/03/08 10:57:32;;;;;;;29.17;17.42;;;;;;;;;;5018810;27;98494;-75
2023/03/08 11:00:08;;;;;;;28.33;18.73;;;;;;;;;;5026972;27;100106;-74
2023/03/08 11:02:37;;;;;;;28.70;19.05;;;;;;;;;;5017294;28;98426;-77
2023/03/08 11:05:16;;;;;;;24.48;14.95;;;;;;;;;;5025951;27;100527;-74
2023/03/08 11:07:48;;;;;;;23.48;15.27;;;;;;;;;;5029045;28;98161;-75
2023/03/08 11:10:16;;;;;;;26.83;17.15;;;;;;;;;;5022675;28;101860;-75
2023/03/08 11:12:43;;;;;;;34.78;20.15;;;;;;;;;;5018915;27;100375;-75
2023/03/08 11:15:17;;;;;;;26.13;16.48;;;;;;;;;;5011753;28;98433;-75
2023/03/08 11:17:52;;;;;;;25.25;16.15;;;;;;;;;;5021628;28;100211;-76
2023/03/08 11:20:40;;;;;;;34.15;21.85;;;;;;;;;;5027363;27;99911;-76
2023/03/08 11:23:21;;;;;;;26.30;18.33;;;;;;;;;;5012180;28;98120;-75
2023/03/08 11:26:11;;;;;;;16.25;11.75;;;;;;;;;;5008053;28;99432;-75
2023/03/08 11:28:53;;;;;;;26.85;17.90;;;;;;;;;;5013959;28;98783;-76
2023/03/08 11:31:40;;;;;;;27.50;18.77;;;;;;;;;;5024304;27;98558;-76
2023/03/08 11:34:15;;;;;;;21.63;16.00;;;;;;;;;;5026018;28;99974;-76
2023/03/08 11:36:47;;;;;;;21.25;14.30;;;;;;;;;;5028192;28;98035;-75
2023/03/08 11:39:23;;;;;;;23.90;13.88;;;;;;;;;;5021772;27;99093;-75
2023/03/08 11:42:03;;;;;;;20.55;12.98;;;;;;;;;;5025993;28;100008;-76
2023/03/08 11:44:40;;;;;;;23.58;14.93;;;;;;;;;;5014631;28;98672;-75
2023/03/08 11:47:25;;;;;;;20.45;13.90;;;;;;;;;;5023062;28;102443;-75
2023/03/08 11:50:06;;;;;;;16.38;11.77;;;;;;;;;;5007922;28;98245;-76
2023/03/08 11:52:42;;;;;;;33.65;19.98;;;;;;;;;;5010679;28;99717;-75
2023/03/08 11:55:08;;;;;;;36.25;18.75;;;;;;;;;;5005439;28;99697;-75
2023/03/08 11:57:37;;;;;;;18.08;11.77;;;;;;;;;;5017761;28;98557;-76
2023/03/08 12:00:11;;;;;;;29.73;19.35;;;;;;;;;;5010892;28;101029;-75
2023/03/08 12:02:40;;;;;;;24.60;15.52;;;;;;;;;;5011092;28;98561;-75
2023/03/08 12:05:16;;;;;;;25.13;16.85;;;;;;;;;;5010737;28;98498;-75
2023/03/08 12:07:45;;;;;;;33.50;21.50;;;;;;;;;;5021901;28;99478;-75
2023/03/08 12:10:11;;;;;;;28.77;18.95;;;;;;;;;;5012164;28;98623;-75
2023/03/08 12:12:40;;;;;;;21.02;15.02;;;;;;;;;;5030866;28;99513;-75
2023/03/08 12:15:16;;;;;;;29.67;18.58;;;;;;;;;;5031216;27;99330;-75
2023/03/08 12:17:51;;;;;;;30.30;17.35;;;;;;;;;;5020132;27;100676;-75
2023/03/08 12:20:19;;;;;;;30.33;19.70;;;;;;;;;;5017480;27;98695;-75
2023/03/08 12:22:49;;;;;;;30.40;20.10;;;;;;;;;;5020472;27;99027;-75
2023/03/08 12:25:24;;;;;;;27.63;18.33;;;;;;;;;;5018500;28;98214;-75
2023/03/08 12:27:51;;;;;;;27.20;18.73;;;;;;;;;;5025094;28;98717;-75
2023/03/08 12:30:32;;;;;;;33.83;18.42;;;;;;;;;;5032666;27;98980;-75
2023/03/08 12:33:00;;;;;;;23.73;13.70;;;;;;;;;;5010668;28;98836;-75
2023/03/08 12:35:34;;;;;;;28.67;16.13;;;;;;;;;;5011702;28;100100;-75
2023/03/08 12:38:25;;;;;;;20.20;13.60;;;;;;;;;;5026209;28;98345;-73
2023/03/08 12:40:53;;;;;;;29.30;17.77;;;;;;;;;;5021738;28;99086;-75
2023/03/08 12:43:19;;;;;;;26.15;17.42;;;;;;;;;;5016039;27;98273;-75
2023/03/08 12:46:00;;;;;;;25.67;16.80;;;;;;;;;;5020513;27;98131;-75
2023/03/08 12:48:29;;;;;;;25.58;17.88;;;;;;;;;;5022117;28;98771;-76
2023/03/08 12:50:55;;;;;;;29.08;18.02;;;;;;;;;;5026333;27;99987;-76
2023/03/08 12:53:34;;;;;;;25.33;14.80;;;;;;;;;;5024053;28;98920;-75
2023/03/08 12:56:05;;;;;;;23.10;14.55;;;;;;;;;;5026449;27;102251;-75
2023/03/08 12:58:33;;;;;;;24.38;17.13;;;;;;;;;;5030210;27;100308;-76
2023/03/08 13:01:04;;;;;;;36.35;25.30;;;;;;;;;;5030047;27;99840;-75
2023/03/08 13:03:36;;;;;;;25.73;16.05;;;;;;;;;;5029420;27;100222;-76
2023/03/08 13:06:21;;;;;;;24.13;13.98;;;;;;;;;;5029048;27;98312;-74
2023/03/08 13:08:51;;;;;;;23.95;15.50;;;;;;;;;;5020260;28;99757;-75
2023/03/08 13:11:18;;;;;;;23.75;16.02;;;;;;;;;;5023675;27;99272;-76
2023/03/08 13:13:50;;;;;;;26.25;16.70;;;;;;;;;;5028800;27;98305;-75
2023/03/08 13:16:19;;;;;;;29.05;18.98;;;;;;;;;;5029135;27;99063;-77
2023/03/08 13:18:47;;;;;;;24.73;16.08;;;;;;;;;;5028351;27;100133;-75
2023/03/08 13:21:13;;;;;;;26.63;18.00;;;;;;;;;;5025567;27;99594;-75
2023/03/08 13:23:45;;;;;;;31.95;20.58;;;;;;;;;;5023438;27;99452;-76
2023/03/08 13:26:31;;;;;;;29.38;19.30;;;;;;;;;;5028781;27;98241;-77
2023/03/08 13:29:15;;;;;;;25.67;17.13;;;;;;;;;;5029792;27;99348;-76
2023/03/08 13:31:43;;;;;;;30.52;19.38;;;;;;;;;;5027379;27;99064;-75
2023/03/08 13:34:29;;;;;;;33.67;20.45;;;;;;;;;;5024748;28;98275;-76
2023/03/08 13:36:56;;;;;;;28.38;19.80;;;;;;;;;;5021473;27;99367;-76
2023/03/08 13:39:27;;;;;;;27.23;18.65;;;;;;;;;;5028895;27;99643;-76
2023/03/08 13:42:14;;;;;;;40.03;21.20;;;;;;;;;;5027511;28;98607;-76
2023/03/08 13:44:40;;;;;;;35.08;19.65;;;;;;;;;;5022650;28;100520;-76
2023/03/08 13:47:33;;;;;;;27.55;19.42;;;;;;;;;;5022828;27;99185;-76
2023/03/08 13:50:00;;;;;;;;;;;;;;;;;;5019629;27;99473;-75
2023/03/08 13:52:30;;;;;;;28.20;18.05;;;;;;;;;;5019651;28;99745;-76
2023/03/08 13:55:02;;;;;;;33.25;21.35;;;;;;;;;;5026963;27;98234;-76
2023/03/08 13:57:34;;;;;;;17.52;11.35;;;;;;;;;;5020311;27;98556;-75
2023/03/08 14:00:35;;;;;;;38.13;22.13;;;;;;;;;;5024718;28;99988;-75
2023/03/08 14:03:05;;;;;;;30.65;20.45;;;;;;;;;;4999179;27;100755;-76
2023/03/08 14:05:38;;;;;;;82.78;38.70;;;;;;;;;;5025716;27;99067;-76
2023/03/08 14:08:16;;;;;;;35.03;22.02;;;;;;;;;;5028592;28;99781;-75
2023/03/08 14:10:44;;;;;;;33.92;19.98;;;;;;;;;;5019677;27;99052;-75
2023/03/08 14:13:37;;;;;;;38.38;20.65;;;;;;;;;;5022033;28;98911;-75
2023/03/08 14:16:07;;;;;;;31.88;19.35;;;;;;;;;;5017822;27;98375;-75
2023/03/08 14:18:38;;;;;;;32.00;17.98;;;;;;;;;;5026369;27;98717;-75
2023/03/08 14:21:15;;;;;;;28.23;19.00;;;;;;;;;;5009495;28;100754;-76
2023/03/08 14:23:48;;;;;;;35.35;19.58;;;;;;;;;;5024904;28;98867;-76
2023/03/08 14:26:26;;;;;;;34.35;21.50;;;;;;;;;;5019538;28;98963;-76
2023/03/08 14:29:05;;;;;;;32.45;21.58;;;;;;;;;;5026223;28;99032;-76
2023/03/08 14:31:31;;;;;;;21.85;14.27;;;;;;;;;;5026877;27;98954;-76
2023/03/08 14:34:00;;;;;;;33.47;21.33;;;;;;;;;;5028958;27;100791;-76